sensor_id;sensor_type;location;lat;lon;timestamp;P1;durP1;ratioP1;P2;durP2;ratioP2
53867;SDS011;41577;47.470;19.080;2023-08-06T00:00:01;15.57;;;8.65;;
53867;SDS011;41577;47.470;19.080;2023-08-06T00:00:13;15.52;;;8.60;;
53867;SDS011;41577;47.470;19.080;2023-08-06T00:00:26;14.15;;;8.43;;
53867;SDS011;41577;47.470;19.080;2023-08-06T00:00:38;11.02;;;8.43;;
53867;SDS011;41577;47.470;19.080;2023-08-06T00:00:50;10.60;;;8.60;;
53867;SDS011;41577;47.470;19.080;2023-08-06T00:01:03;11.80;;;9.25;;
53867;SDS011;41577;47.470;19.080;2023-08-06T00:01:15;13.65;;;9.93;;
53867;SDS011;41577;47.470;19.080;2023-08-06T00:01:27;14.07;;;9.60;;
53867;SDS011;41577;47.470;19.080;2023-08-06T00:01:39;14.00;;;9.00;;
53867;SDS011;41577;47.470;19.080;2023-08-06T00:01:51;16.30;;;8.48;;
53867;SDS011;41577;47.470;19.080;2023-08-06T00:02:04;17.05;;;8.52;;
53867;SDS011;41577;47.470;19.080;2023-08-06T00:02:16;16.90;;;8.73;;
53867;SDS011;41577;47.470;19.080;2023-08-06T00:02:27;13.80;;;8.45;;
53867;SDS011;41577;47.470;19.080;2023-08-06T00:02:39;11.65;;;8.02;;
53867;SDS011;41577;47.470;19.080;2023-08-06T00:02:51;11.52;;;8.13;;
53867;SDS011;41577;47.470;19.080;2023-08-06T00:03:04;9.85;;;7.78;;
53867;SDS011;41577;47.470;19.080;2023-08-06T00:03:17;15.90;;;8.25;;
53867;SDS011;41577;47.470;19.080;2023-08-06T00:03:29;16.75;;;8.25;;
53867;SDS011;41577;47.470;19.080;2023-08-06T00:03:41;15.60;;;8.02;;
53867;SDS011;41577;47.470;19.080;2023-08-06T00:03:53;11.00;;;7.95;;
53867;SDS011;41577;47.470;19.080;2023-08-06T00:04:08;11.57;;;8.18;;
53867;SDS011;41577;47.470;19.080;2023-08-06T00:04:20;13.65;;;8.60;;
53867;SDS011;41577;47.470;19.080;2023-08-06T00:04:32;14.55;;;8.80;;
53867;SDS011;41577;47.470;19.080;2023-08-06T00:04:44;13.32;;;8.65;;
53867;SDS011;41577;47.470;19.080;2023-08-06T00:04:56;13.38;;;8.25;;
53867;SDS011;41577;47.470;19.080;2023-08-06T00:05:08;11.23;;;8.02;;
53867;SDS011;41577;47.470;19.080;2023-08-06T00:05:20;10.25;;;8.10;;
53867;SDS011;41577;47.470;19.080;2023-08-06T00:05:32;8.95;;;7.53;;
53867;SDS011;41577;47.470;19.080;2023-08-06T00:05:44;8.10;;;7.28;;
53867;SDS011;41577;47.470;19.080;2023-08-06T00:05:56;8.02;;;7.22;;
53867;SDS011;41577;47.470;19.080;2023-08-06T00:06:08;8.30;;;7.20;;
53867;SDS011;41577;47.470;19.080;2023-08-06T00:06:20;8.70;;;6.97;;
53867;SDS011;41577;47.470;19.080;2023-08-06T00:06:32;9.20;;;6.82;;
53867;SDS011;41577;47.470;19.080;2023-08-06T00:06:44;10.00;;;7.13;;
53867;SDS011;41577;47.470;19.080;2023-08-06T00:06:56;10.20;;;7.15;;
53867;SDS011;41577;47.470;19.080;2023-08-06T00:07:08;9.60;;;7.25;;
53867;SDS011;41577;47.470;19.080;2023-08-06T00:07:20;9.85;;;7.07;;
53867;SDS011;41577;47.470;19.080;2023-08-06T00:07:32;11.63;;;7.05;;
53867;SDS011;41577;47.470;19.080;2023-08-06T00:07:44;12.48;;;7.07;;
53867;SDS011;41577;47.470;19.080;2023-08-06T00:07:56;14.25;;;7.18;;
53867;SDS011;41577;47.470;19.080;2023-08-06T00:08:08;12.13;;;6.93;;
53867;SDS011;41577;47.470;19.080;2023-08-06T00:08:20;11.07;;;6.75;;
53867;SDS011;41577;47.470;19.080;2023-08-06T00:08:32;7.65;;;6.68;;
53867;SDS011;41577;47.470;19.080;2023-08-06T00:08:44;8.98;;;7.30;;
53867;SDS011;41577;47.470;19.080;2023-08-06T00:08:56;11.93;;;7.10;;
53867;SDS011;41577;47.470;19.080;2023-08-06T00:09:10;12.35;;;6.68;;
53867;SDS011;41577;47.470;19.080;2023-08-06T00:09:22;11.18;;;6.88;;
53867;SDS011;41577;47.470;19.080;2023-08-06T00:09:34;8.50;;;6.60;;
53867;SDS011;41577;47.470;19.080;2023-08-06T00:09:46;8.25;;;6.35;;
53867;SDS011;41577;47.470;19.080;2023-08-06T00:09:58;8.35;;;6.50;;
53867;SDS011;41577;47.470;19.080;2023-08-06T00:10:09;8.80;;;6.72;;
53867;SDS011;41577;47.470;19.080;2023-08-06T00:10:22;9.20;;;6.60;;
53867;SDS011;41577;47.470;19.080;2023-08-06T00:10:34;9.57;;;6.57;;
53867;SDS011;41577;47.470;19.080;2023-08-06T00:10:47;8.00;;;5.97;;
53867;SDS011;41577;47.470;19.080;2023-08-06T00:10:59;12.10;;;6.00;;
53867;SDS011;41577;47.470;19.080;2023-08-06T00:11:11;16.40;;;6.38;;
53867;SDS011;41577;47.470;19.080;2023-08-06T00:11:23;15.68;;;6.18;;
53867;SDS011;41577;47.470;19.080;2023-08-06T00:11:38;8.07;;;6.07;;
53867;SDS011;41577;47.470;19.080;2023-08-06T00:11:50;9.55;;;6.50;;
53867;SDS011;41577;47.470;19.080;2023-08-06T00:12:02;9.85;;;6.28;;
53867;SDS011;41577;47.470;19.080;2023-08-06T00:12:15;10.27;;;6.32;;
53867;SDS011;41577;47.470;19.080;2023-08-06T00:12:27;9.48;;;6.35;;
53867;SDS011;41577;47.470;19.080;2023-08-06T00:12:39;10.07;;;6.57;;
53867;SDS011;41577;47.470;19.080;2023-08-06T00:12:51;10.63;;;6.72;;
53867;SDS011;41577;47.470;19.080;2023-08-06T00:13:03;13.00;;;6.75;;
53867;SDS011;41577;47.470;19.080;2023-08-06T00:13:15;11.35;;;6.53;;
53867;SDS011;41577;47.470;19.080;2023-08-06T00:13:27;11.45;;;6.53;;
53867;SDS011;41577;47.470;19.080;2023-08-06T00:13:39;7.60;;;6.22;;
53867;SDS011;41577;47.470;19.080;2023-08-06T00:13:51;7.57;;;6.50;;
53867;SDS011;41577;47.470;19.080;2023-08-06T00:14:03;8.93;;;6.70;;
53867;SDS011;41577;47.470;19.080;2023-08-06T00:14:15;8.85;;;6.82;;
53867;SDS011;41577;47.470;19.080;2023-08-06T00:14:27;8.40;;;6.78;;
53867;SDS011;41577;47.470;19.080;2023-08-06T00:14:39;7.40;;;6.20;;
53867;SDS011;41577;47.470;19.080;2023-08-06T00:14:51;7.38;;;5.90;;
53867;SDS011;41577;47.470;19.080;2023-08-06T00:15:04;9.05;;;6.43;;
53867;SDS011;41577;47.470;19.080;2023-08-06T00:15:17;11.77;;;7.13;;
53867;SDS011;41577;47.470;19.080;2023-08-06T00:15:29;12.15;;;7.43;;
53867;SDS011;41577;47.470;19.080;2023-08-06T00:15:41;10.82;;;7.10;;
53867;SDS011;41577;47.470;19.080;2023-08-06T00:15:53;10.18;;;6.85;;
53867;SDS011;41577;47.470;19.080;2023-08-06T00:16:09;8.20;;;6.75;;
53867;SDS011;41577;47.470;19.080;2023-08-06T00:16:21;10.85;;;6.65;;
53867;SDS011;41577;47.470;19.080;2023-08-06T00:16:34;12.05;;;6.90;;
53867;SDS011;41577;47.470;19.080;2023-08-06T00:16:46;11.63;;;6.95;;
53867;SDS011;41577;47.470;19.080;2023-08-06T00:16:58;8.75;;;6.53;;
53867;SDS011;41577;47.470;19.080;2023-08-06T00:17:10;9.00;;;6.45;;
53867;SDS011;41577;47.470;19.080;2023-08-06T00:17:22;9.60;;;6.88;;
53867;SDS011;41577;47.470;19.080;2023-08-06T00:17:34;9.43;;;7.20;;
53867;SDS011;41577;47.470;19.080;2023-08-06T00:17:46;11.88;;;7.25;;
53867;SDS011;41577;47.470;19.080;2023-08-06T00:17:58;13.75;;;7.15;;
53867;SDS011;41577;47.470;19.080;2023-08-06T00:18:10;13.77;;;7.38;;
53867;SDS011;41577;47.470;19.080;2023-08-06T00:18:22;10.23;;;7.13;;
53867;SDS011;41577;47.470;19.080;2023-08-06T00:18:34;11.48;;;7.28;;
53867;SDS011;41577;47.470;19.080;2023-08-06T00:18:46;11.43;;;7.00;;
53867;SDS011;41577;47.470;19.080;2023-08-06T00:18:58;13.02;;;7.07;;
53867;SDS011;41577;47.470;19.080;2023-08-06T00:19:10;10.90;;;6.93;;
53867;SDS011;41577;47.470;19.080;2023-08-06T00:19:22;8.82;;;6.05;;
53867;SDS011;41577;47.470;19.080;2023-08-06T00:19:34;9.82;;;6.60;;
53867;SDS011;41577;47.470;19.080;2023-08-06T00:19:46;12.27;;;7.28;;
53867;SDS011;41577;47.470;19.080;2023-08-06T00:19:58;14.50;;;7.40;;
53867;SDS011;41577;47.470;19.080;2023-08-06T00:20:11;12.75;;;7.18;;
53867;SDS011;41577;47.470;19.080;2023-08-06T00:20:22;10.85;;;6.90;;
53867;SDS011;41577;47.470;19.080;2023-08-06T00:20:35;11.60;;;6.95;;
53867;SDS011;41577;47.470;19.080;2023-08-06T00:20:46;11.55;;;7.00;;
53867;SDS011;41577;47.470;19.080;2023-08-06T00:20:58;11.45;;;7.03;;
53867;SDS011;41577;47.470;19.080;2023-08-06T00:21:10;10.55;;;7.00;;
53867;SDS011;41577;47.470;19.080;2023-08-06T00:21:22;12.88;;;6.90;;
53867;SDS011;41577;47.470;19.080;2023-08-06T00:21:34;14.60;;;6.55;;
53867;SDS011;41577;47.470;19.080;2023-08-06T00:21:48;14.70;;;6.65;;
53867;SDS011;41577;47.470;19.080;2023-08-06T00:22:01;11.02;;;6.72;;
53867;SDS011;41577;47.470;19.080;2023-08-06T00:22:14;9.90;;;7.05;;
53867;SDS011;41577;47.470;19.080;2023-08-06T00:22:26;9.02;;;6.68;;
53867;SDS011;41577;47.470;19.080;2023-08-06T00:22:38;8.10;;;6.30;;
53867;SDS011;41577;47.470;19.080;2023-08-06T00:22:50;8.80;;;6.47;;
53867;SDS011;41577;47.470;19.080;2023-08-06T00:23:02;8.98;;;6.75;;
53867;SDS011;41577;47.470;19.080;2023-08-06T00:23:31;9.77;;;6.50;;
53867;SDS011;41577;47.470;19.080;2023-08-06T00:23:46;9.05;;;6.20;;
53867;SDS011;41577;47.470;19.080;2023-08-06T00:23:58;9.55;;;6.53;;
53867;SDS011;41577;47.470;19.080;2023-08-06T00:24:13;9.07;;;6.43;;
53867;SDS011;41577;47.470;19.080;2023-08-06T00:24:25;7.90;;;6.05;;
53867;SDS011;41577;47.470;19.080;2023-08-06T00:24:37;9.32;;;6.40;;
53867;SDS011;41577;47.470;19.080;2023-08-06T00:24:49;9.05;;;6.10;;
53867;SDS011;41577;47.470;19.080;2023-08-06T00:25:01;9.10;;;6.25;;
53867;SDS011;41577;47.470;19.080;2023-08-06T00:25:14;9.25;;;6.78;;
53867;SDS011;41577;47.470;19.080;2023-08-06T00:25:26;8.07;;;6.50;;
53867;SDS011;41577;47.470;19.080;2023-08-06T00:25:38;8.88;;;6.22;;
53867;SDS011;41577;47.470;19.080;2023-08-06T00:25:50;9.77;;;6.45;;
53867;SDS011;41577;47.470;19.080;2023-08-06T00:26:01;8.65;;;6.00;;
53867;SDS011;41577;47.470;19.080;2023-08-06T00:26:13;7.35;;;5.70;;
53867;SDS011;41577;47.470;19.080;2023-08-06T00:26:25;7.45;;;5.78;;
53867;SDS011;41577;47.470;19.080;2023-08-06T00:26:40;7.88;;;5.82;;
53867;SDS011;41577;47.470;19.080;2023-08-06T00:26:52;7.63;;;5.90;;
53867;SDS011;41577;47.470;19.080;2023-08-06T00:27:04;8.55;;;6.28;;
53867;SDS011;41577;47.470;19.080;2023-08-06T00:27:17;9.32;;;6.50;;
53867;SDS011;41577;47.470;19.080;2023-08-06T00:27:30;8.68;;;6.65;;
53867;SDS011;41577;47.470;19.080;2023-08-06T00:27:42;7.80;;;6.10;;
53867;SDS011;41577;47.470;19.080;2023-08-06T00:27:54;8.25;;;5.68;;
53867;SDS011;41577;47.470;19.080;2023-08-06T00:28:06;8.30;;;5.68;;
53867;SDS011;41577;47.470;19.080;2023-08-06T00:28:18;7.65;;;5.57;;
53867;SDS011;41577;47.470;19.080;2023-08-06T00:28:30;8.57;;;5.25;;
53867;SDS011;41577;47.470;19.080;2023-08-06T00:28:43;9.23;;;5.45;;
53867;SDS011;41577;47.470;19.080;2023-08-06T00:28:55;9.85;;;5.70;;
53867;SDS011;41577;47.470;19.080;2023-08-06T00:29:07;15.93;;;6.30;;
53867;SDS011;41577;47.470;19.080;2023-08-06T00:29:19;14.98;;;6.30;;
53867;SDS011;41577;47.470;19.080;2023-08-06T00:29:31;12.65;;;6.25;;
53867;SDS011;41577;47.470;19.080;2023-08-06T00:29:43;9.18;;;6.30;;
53867;SDS011;41577;47.470;19.080;2023-08-06T00:29:55;8.65;;;6.63;;
53867;SDS011;41577;47.470;19.080;2023-08-06T00:30:07;9.90;;;6.88;;
53867;SDS011;41577;47.470;19.080;2023-08-06T00:30:20;9.77;;;6.75;;
53867;SDS011;41577;47.470;19.080;2023-08-06T00:30:34;11.88;;;6.22;;
53867;SDS011;41577;47.470;19.080;2023-08-06T00:30:51;11.23;;;5.75;;
53867;SDS011;41577;47.470;19.080;2023-08-06T00:31:04;8.90;;;5.43;;
53867;SDS011;41577;47.470;19.080;2023-08-06T00:31:17;9.45;;;5.65;;
53867;SDS011;41577;47.470;19.080;2023-08-06T00:31:29;9.73;;;5.88;;
53867;SDS011;41577;47.470;19.080;2023-08-06T00:31:42;8.02;;;6.15;;
53867;SDS011;41577;47.470;19.080;2023-08-06T00:31:54;7.60;;;6.18;;
53867;SDS011;41577;47.470;19.080;2023-08-06T00:32:06;8.60;;;6.47;;
53867;SDS011;41577;47.470;19.080;2023-08-06T00:32:18;8.63;;;6.35;;
53867;SDS011;41577;47.470;19.080;2023-08-06T00:32:30;10.02;;;6.13;;
53867;SDS011;41577;47.470;19.080;2023-08-06T00:32:42;11.45;;;6.22;;
53867;SDS011;41577;47.470;19.080;2023-08-06T00:32:54;10.18;;;5.95;;
53867;SDS011;41577;47.470;19.080;2023-08-06T00:33:07;10.52;;;6.07;;
53867;SDS011;41577;47.470;19.080;2023-08-06T00:33:19;8.43;;;6.18;;
53867;SDS011;41577;47.470;19.080;2023-08-06T00:33:31;7.63;;;5.97;;
53867;SDS011;41577;47.470;19.080;2023-08-06T00:33:43;9.48;;;5.85;;
53867;SDS011;41577;47.470;19.080;2023-08-06T00:33:55;9.13;;;5.60;;
53867;SDS011;41577;47.470;19.080;2023-08-06T00:34:07;9.45;;;6.10;;
53867;SDS011;41577;47.470;19.080;2023-08-06T00:34:19;9.27;;;6.45;;
53867;SDS011;41577;47.470;19.080;2023-08-06T00:34:31;9.48;;;6.70;;
53867;SDS011;41577;47.470;19.080;2023-08-06T00:34:43;10.63;;;6.50;;
53867;SDS011;41577;47.470;19.080;2023-08-06T00:34:55;10.35;;;6.22;;
53867;SDS011;41577;47.470;19.080;2023-08-06T00:35:08;9.85;;;6.05;;
53867;SDS011;41577;47.470;19.080;2023-08-06T00:35:20;7.22;;;6.00;;
53867;SDS011;41577;47.470;19.080;2023-08-06T00:35:32;7.45;;;5.90;;
53867;SDS011;41577;47.470;19.080;2023-08-06T00:35:44;9.45;;;5.93;;
53867;SDS011;41577;47.470;19.080;2023-08-06T00:35:56;10.07;;;5.78;;
53867;SDS011;41577;47.470;19.080;2023-08-06T00:36:08;8.40;;;5.82;;
53867;SDS011;41577;47.470;19.080;2023-08-06T00:36:20;9.55;;;6.30;;
53867;SDS011;41577;47.470;19.080;2023-08-06T00:36:33;9.95;;;6.50;;
53867;SDS011;41577;47.470;19.080;2023-08-06T00:36:45;8.77;;;6.55;;
53867;SDS011;41577;47.470;19.080;2023-08-06T00:36:57;8.20;;;6.55;;
53867;SDS011;41577;47.470;19.080;2023-08-06T00:37:09;7.63;;;6.03;;
53867;SDS011;41577;47.470;19.080;2023-08-06T00:37:21;9.05;;;6.05;;
53867;SDS011;41577;47.470;19.080;2023-08-06T00:37:33;9.60;;;6.50;;
53867;SDS011;41577;47.470;19.080;2023-08-06T00:37:45;7.85;;;6.20;;
53867;SDS011;41577;47.470;19.080;2023-08-06T00:37:57;7.15;;;5.85;;
53867;SDS011;41577;47.470;19.080;2023-08-06T00:38:09;7.63;;;5.88;;
53867;SDS011;41577;47.470;19.080;2023-08-06T00:38:21;7.95;;;5.80;;
53867;SDS011;41577;47.470;19.080;2023-08-06T00:38:33;8.65;;;5.90;;
53867;SDS011;41577;47.470;19.080;2023-08-06T00:38:45;9.07;;;5.90;;
53867;SDS011;41577;47.470;19.080;2023-08-06T00:38:57;10.70;;;6.57;;
53867;SDS011;41577;47.470;19.080;2023-08-06T00:39:09;9.63;;;6.38;;
53867;SDS011;41577;47.470;19.080;2023-08-06T00:39:24;8.52;;;6.72;;
53867;SDS011;41577;47.470;19.080;2023-08-06T00:39:36;9.27;;;6.90;;
53867;SDS011;41577;47.470;19.080;2023-08-06T00:39:49;9.63;;;6.72;;
53867;SDS011;41577;47.470;19.080;2023-08-06T00:40:01;8.50;;;6.50;;
53867;SDS011;41577;47.470;19.080;2023-08-06T00:40:13;7.30;;;6.50;;
53867;SDS011;41577;47.470;19.080;2023-08-06T00:40:25;8.15;;;6.60;;
53867;SDS011;41577;47.470;19.080;2023-08-06T00:40:37;10.45;;;6.45;;
53867;SDS011;41577;47.470;19.080;2023-08-06T00:40:49;10.05;;;6.07;;
53867;SDS011;41577;47.470;19.080;2023-08-06T00:41:01;7.50;;;5.80;;
53867;SDS011;41577;47.470;19.080;2023-08-06T00:41:13;7.95;;;6.10;;
53867;SDS011;41577;47.470;19.080;2023-08-06T00:41:25;8.77;;;6.38;;
53867;SDS011;41577;47.470;19.080;2023-08-06T00:41:38;9.05;;;6.50;;
53867;SDS011;41577;47.470;19.080;2023-08-06T00:41:50;9.20;;;6.43;;
53867;SDS011;41577;47.470;19.080;2023-08-06T00:42:02;10.38;;;6.40;;
53867;SDS011;41577;47.470;19.080;2023-08-06T00:42:15;10.48;;;6.20;;
53867;SDS011;41577;47.470;19.080;2023-08-06T00:42:27;9.35;;;6.28;;
53867;SDS011;41577;47.470;19.080;2023-08-06T00:42:39;8.25;;;6.22;;
53867;SDS011;41577;47.470;19.080;2023-08-06T00:42:52;8.05;;;6.20;;
53867;SDS011;41577;47.470;19.080;2023-08-06T00:43:04;7.22;;;5.95;;
53867;SDS011;41577;47.470;19.080;2023-08-06T00:43:16;6.22;;;5.25;;
53867;SDS011;41577;47.470;19.080;2023-08-06T00:43:28;6.25;;;5.32;;
53867;SDS011;41577;47.470;19.080;2023-08-06T00:43:40;7.68;;;5.80;;
53867;SDS011;41577;47.470;19.080;2023-08-06T00:43:52;7.68;;;6.30;;
53867;SDS011;41577;47.470;19.080;2023-08-06T00:44:04;7.50;;;6.28;;
53867;SDS011;41577;47.470;19.080;2023-08-06T00:44:17;7.82;;;6.35;;
53867;SDS011;41577;47.470;19.080;2023-08-06T00:44:29;8.20;;;6.47;;
53867;SDS011;41577;47.470;19.080;2023-08-06T00:44:41;8.05;;;6.53;;
53867;SDS011;41577;47.470;19.080;2023-08-06T00:44:54;9.05;;;6.28;;
53867;SDS011;41577;47.470;19.080;2023-08-06T00:45:06;10.50;;;6.47;;
53867;SDS011;41577;47.470;19.080;2023-08-06T00:45:21;10.02;;;6.60;;
53867;SDS011;41577;47.470;19.080;2023-08-06T00:45:33;10.82;;;6.88;;
53867;SDS011;41577;47.470;19.080;2023-08-06T00:45:46;11.02;;;6.75;;
53867;SDS011;41577;47.470;19.080;2023-08-06T00:45:59;10.70;;;6.97;;
53867;SDS011;41577;47.470;19.080;2023-08-06T00:46:11;8.63;;;6.75;;
53867;SDS011;41577;47.470;19.080;2023-08-06T00:46:24;8.70;;;6.55;;
53867;SDS011;41577;47.470;19.080;2023-08-06T00:46:37;8.98;;;6.68;;
53867;SDS011;41577;47.470;19.080;2023-08-06T00:46:49;9.13;;;6.47;;
53867;SDS011;41577;47.470;19.080;2023-08-06T00:47:02;7.97;;;6.32;;
53867;SDS011;41577;47.470;19.080;2023-08-06T00:47:14;8.02;;;6.28;;
53867;SDS011;41577;47.470;19.080;2023-08-06T00:47:27;9.82;;;6.15;;
53867;SDS011;41577;47.470;19.080;2023-08-06T00:47:39;9.90;;;6.18;;
53867;SDS011;41577;47.470;19.080;2023-08-06T00:47:53;11.88;;;6.30;;
53867;SDS011;41577;47.470;19.080;2023-08-06T00:48:05;11.77;;;6.63;;
53867;SDS011;41577;47.470;19.080;2023-08-06T00:48:18;10.82;;;6.80;;
53867;SDS011;41577;47.470;19.080;2023-08-06T00:48:31;8.85;;;6.72;;
53867;SDS011;41577;47.470;19.080;2023-08-06T00:48:43;9.35;;;7.05;;
53867;SDS011;41577;47.470;19.080;2023-08-06T00:48:55;8.65;;;6.65;;
53867;SDS011;41577;47.470;19.080;2023-08-06T00:49:08;7.82;;;6.18;;
53867;SDS011;41577;47.470;19.080;2023-08-06T00:49:20;8.02;;;6.13;;
53867;SDS011;41577;47.470;19.080;2023-08-06T00:49:32;7.55;;;6.25;;
53867;SDS011;41577;47.470;19.080;2023-08-06T00:49:45;7.68;;;6.28;;
53867;SDS011;41577;47.470;19.080;2023-08-06T00:49:57;9.30;;;6.47;;
53867;SDS011;41577;47.470;19.080;2023-08-06T00:50:09;11.48;;;6.63;;
53867;SDS011;41577;47.470;19.080;2023-08-06T00:50:21;12.45;;;6.95;;
53867;SDS011;41577;47.470;19.080;2023-08-06T00:50:33;11.02;;;6.78;;
53867;SDS011;41577;47.470;19.080;2023-08-06T00:50:45;10.82;;;7.05;;
53867;SDS011;41577;47.470;19.080;2023-08-06T00:50:58;10.00;;;6.68;;
53867;SDS011;41577;47.470;19.080;2023-08-06T00:51:10;8.65;;;6.45;;
53867;SDS011;41577;47.470;19.080;2023-08-06T00:51:22;9.48;;;6.53;;
53867;SDS011;41577;47.470;19.080;2023-08-06T00:51:36;10.45;;;6.68;;
53867;SDS011;41577;47.470;19.080;2023-08-06T00:51:49;9.80;;;6.32;;
53867;SDS011;41577;47.470;19.080;2023-08-06T00:52:02;9.32;;;6.55;;
53867;SDS011;41577;47.470;19.080;2023-08-06T00:52:16;13.70;;;7.13;;
53867;SDS011;41577;47.470;19.080;2023-08-06T00:52:29;12.00;;;6.53;;
53867;SDS011;41577;47.470;19.080;2023-08-06T00:52:41;8.82;;;6.28;;
53867;SDS011;41577;47.470;19.080;2023-08-06T00:52:53;9.55;;;6.47;;
53867;SDS011;41577;47.470;19.080;2023-08-06T00:53:06;13.40;;;6.75;;
53867;SDS011;41577;47.470;19.080;2023-08-06T00:53:18;15.70;;;7.03;;
53867;SDS011;41577;47.470;19.080;2023-08-06T00:53:30;16.63;;;7.25;;
53867;SDS011;41577;47.470;19.080;2023-08-06T00:53:42;11.57;;;6.97;;
53867;SDS011;41577;47.470;19.080;2023-08-06T00:53:55;8.82;;;6.75;;
53867;SDS011;41577;47.470;19.080;2023-08-06T00:54:08;7.97;;;6.68;;
53867;SDS011;41577;47.470;19.080;2023-08-06T00:54:20;10.55;;;6.47;;
53867;SDS011;41577;47.470;19.080;2023-08-06T00:54:34;12.38;;;6.93;;
53867;SDS011;41577;47.470;19.080;2023-08-06T00:54:47;9.55;;;6.85;;
53867;SDS011;41577;47.470;19.080;2023-08-06T00:54:59;8.48;;;6.57;;
53867;SDS011;41577;47.470;19.080;2023-08-06T00:55:11;8.07;;;6.53;;
53867;SDS011;41577;47.470;19.080;2023-08-06T00:55:24;10.02;;;6.72;;
53867;SDS011;41577;47.470;19.080;2023-08-06T00:55:36;9.38;;;6.50;;
53867;SDS011;41577;47.470;19.080;2023-08-06T00:55:48;8.38;;;6.53;;
53867;SDS011;41577;47.470;19.080;2023-08-06T00:56:01;8.88;;;6.65;;
53867;SDS011;41577;47.470;19.080;2023-08-06T00:56:14;8.88;;;6.63;;
53867;SDS011;41577;47.470;19.080;2023-08-06T00:56:26;7.65;;;6.55;;
53867;SDS011;41577;47.470;19.080;2023-08-06T00:56:38;7.20;;;6.35;;
53867;SDS011;41577;47.470;19.080;2023-08-06T00:56:53;7.35;;;6.22;;
53867;SDS011;41577;47.470;19.080;2023-08-06T00:57:05;7.85;;;6.60;;
53867;SDS011;41577;47.470;19.080;2023-08-06T00:57:19;8.75;;;6.72;;
53867;SDS011;41577;47.470;19.080;2023-08-06T00:57:34;10.35;;;6.97;;
53867;SDS011;41577;47.470;19.080;2023-08-06T00:57:47;10.15;;;7.05;;
53867;SDS011;41577;47.470;19.080;2023-08-06T00:57:59;9.63;;;6.82;;
53867;SDS011;41577;47.470;19.080;2023-08-06T00:58:12;11.55;;;7.38;;
53867;SDS011;41577;47.470;19.080;2023-08-06T00:58:28;9.85;;;6.90;;
53867;SDS011;41577;47.470;19.080;2023-08-06T00:58:40;8.10;;;6.53;;
53867;SDS011;41577;47.470;19.080;2023-08-06T00:58:53;9.43;;;6.72;;
53867;SDS011;41577;47.470;19.080;2023-08-06T00:59:06;11.57;;;6.85;;
53867;SDS011;41577;47.470;19.080;2023-08-06T00:59:20;12.35;;;6.57;;
53867;SDS011;41577;47.470;19.080;2023-08-06T00:59:32;10.40;;;6.03;;
53867;SDS011;41577;47.470;19.080;2023-08-06T00:59:45;8.00;;;5.82;;
53867;SDS011;41577;47.470;19.080;2023-08-06T00:59:59;7.18;;;5.90;;
53867;SDS011;41577;47.470;19.080;2023-08-06T01:00:11;7.25;;;5.97;;
53867;SDS011;41577;47.470;19.080;2023-08-06T01:00:24;7.75;;;6.35;;
53867;SDS011;41577;47.470;19.080;2023-08-06T01:00:37;8.23;;;6.50;;
53867;SDS011;41577;47.470;19.080;2023-08-06T01:01:21;8.98;;;6.28;;
53867;SDS011;41577;47.470;19.080;2023-08-06T01:01:33;9.70;;;6.82;;
53867;SDS011;41577;47.470;19.080;2023-08-06T01:01:45;10.13;;;7.00;;
53867;SDS011;41577;47.470;19.080;2023-08-06T01:01:57;12.07;;;7.10;;
53867;SDS011;41577;47.470;19.080;2023-08-06T01:02:10;9.95;;;6.47;;
53867;SDS011;41577;47.470;19.080;2023-08-06T01:02:22;8.15;;;6.47;;
53867;SDS011;41577;47.470;19.080;2023-08-06T01:02:34;10.25;;;6.50;;
53867;SDS011;41577;47.470;19.080;2023-08-06T01:02:47;10.52;;;6.47;;
53867;SDS011;41577;47.470;19.080;2023-08-06T01:03:00;8.80;;;6.75;;
53867;SDS011;41577;47.470;19.080;2023-08-06T01:03:12;10.18;;;6.80;;
53867;SDS011;41577;47.470;19.080;2023-08-06T01:03:24;9.68;;;6.40;;
53867;SDS011;41577;47.470;19.080;2023-08-06T01:03:37;8.75;;;6.25;;
53867;SDS011;41577;47.470;19.080;2023-08-06T01:03:49;11.05;;;6.65;;
53867;SDS011;41577;47.470;19.080;2023-08-06T01:04:01;12.25;;;6.97;;
53867;SDS011;41577;47.470;19.080;2023-08-06T01:04:14;9.23;;;6.40;;
53867;SDS011;41577;47.470;19.080;2023-08-06T01:04:26;8.38;;;6.35;;
53867;SDS011;41577;47.470;19.080;2023-08-06T01:04:38;8.55;;;6.28;;
53867;SDS011;41577;47.470;19.080;2023-08-06T01:04:50;8.07;;;6.35;;
53867;SDS011;41577;47.470;19.080;2023-08-06T01:05:02;8.85;;;6.72;;
53867;SDS011;41577;47.470;19.080;2023-08-06T01:05:15;8.73;;;6.85;;
53867;SDS011;41577;47.470;19.080;2023-08-06T01:05:27;9.63;;;7.13;;
53867;SDS011;41577;47.470;19.080;2023-08-06T01:05:39;9.98;;;7.25;;
53867;SDS011;41577;47.470;19.080;2023-08-06T01:05:51;9.82;;;7.00;;
53867;SDS011;41577;47.470;19.080;2023-08-06T01:06:04;10.10;;;6.93;;
53867;SDS011;41577;47.470;19.080;2023-08-06T01:06:16;9.30;;;6.82;;
53867;SDS011;41577;47.470;19.080;2023-08-06T01:06:36;8.13;;;6.25;;
53867;SDS011;41577;47.470;19.080;2023-08-06T01:06:59;10.27;;;6.63;;
53867;SDS011;41577;47.470;19.080;2023-08-06T01:07:25;11.18;;;6.90;;
53867;SDS011;41577;47.470;19.080;2023-08-06T01:07:46;9.85;;;6.57;;
53867;SDS011;41577;47.470;19.080;2023-08-06T01:08:12;21.88;;;8.82;;
53867;SDS011;41577;47.470;19.080;2023-08-06T01:08:37;20.95;;;9.75;;
53867;SDS011;41577;47.470;19.080;2023-08-06T01:09:01;20.00;;;9.35;;
53867;SDS011;41577;47.470;19.080;2023-08-06T01:09:23;24.33;;;10.82;;
53867;SDS011;41577;47.470;19.080;2023-08-06T01:09:50;19.02;;;9.32;;
53867;SDS011;41577;47.470;19.080;2023-08-06T01:10:18;17.35;;;8.75;;
53867;SDS011;41577;47.470;19.080;2023-08-06T01:10:40;18.63;;;8.27;;
53867;SDS011;41577;47.470;19.080;2023-08-06T01:11:07;14.05;;;6.82;;
53867;SDS011;41577;47.470;19.080;2023-08-06T01:11:43;19.80;;;9.50;;
53867;SDS011;41577;47.470;19.080;2023-08-06T01:12:06;15.45;;;9.15;;
53867;SDS011;41577;47.470;19.080;2023-08-06T01:12:33;18.55;;;9.18;;
53867;SDS011;41577;47.470;19.080;2023-08-06T01:12:55;24.00;;;11.27;;
53867;SDS011;41577;47.470;19.080;2023-08-06T01:13:18;24.08;;;9.55;;
53867;SDS011;41577;47.470;19.080;2023-08-06T01:13:38;23.65;;;9.95;;
53867;SDS011;41577;47.470;19.080;2023-08-06T01:13:54;29.58;;;11.75;;
53867;SDS011;41577;47.470;19.080;2023-08-06T01:14:15;29.95;;;12.18;;
53867;SDS011;41577;47.470;19.080;2023-08-06T01:14:37;28.75;;;11.65;;
53867;SDS011;41577;47.470;19.080;2023-08-06T01:14:58;21.63;;;9.05;;
53867;SDS011;41577;47.470;19.080;2023-08-06T01:15:17;21.70;;;10.00;;
53867;SDS011;41577;47.470;19.080;2023-08-06T01:15:33;28.02;;;11.63;;
53867;SDS011;41577;47.470;19.080;2023-08-06T01:15:53;30.60;;;12.05;;
53867;SDS011;41577;47.470;19.080;2023-08-06T01:16:07;35.13;;;13.35;;
53867;SDS011;41577;47.470;19.080;2023-08-06T01:16:21;37.67;;;14.38;;
53867;SDS011;41577;47.470;19.080;2023-08-06T01:16:35;36.13;;;13.02;;
53867;SDS011;41577;47.470;19.080;2023-08-06T01:16:49;40.50;;;13.95;;
53867;SDS011;41577;47.470;19.080;2023-08-06T01:17:02;38.10;;;14.25;;
53867;SDS011;41577;47.470;19.080;2023-08-06T01:17:16;26.35;;;11.00;;
53867;SDS011;41577;47.470;19.080;2023-08-06T01:17:29;25.35;;;10.45;;
53867;SDS011;41577;47.470;19.080;2023-08-06T01:17:42;25.15;;;10.13;;
53867;SDS011;41577;47.470;19.080;2023-08-06T01:17:56;29.35;;;11.48;;
53867;SDS011;41577;47.470;19.080;2023-08-06T01:18:10;33.85;;;13.85;;
53867;SDS011;41577;47.470;19.080;2023-08-06T01:18:22;32.30;;;13.38;;